Time;durP1;ratioP1;P1;durP2;ratioP2;P2;SDS_P1;SDS_P2;PMS_P1;PMS_P2;Temp;Humidity;BMP_temperature;BMP_pressure;BME280_temperature;BME280_humidity;BME280_pressure;Samples;Min_cycle;Max_cycle;Signal;HPM_P1;HPM_P2
2022/05/10 00:00:32;;;;;;;;;;;18.80;99.90;;;;;;5010400;28;20009;-84
2022/05/10 00:02:59;;;;;;;;;;;18.70;99.90;;;;;;5022774;28;19925;-84
2022/05/10 00:05:30;;;;;;;;;;;18.70;99.90;;;;;;5023421;28;20492;-84
2022/05/10 00:07:56;;;;;;;;;;;18.60;99.90;;;;;;5020192;28;19914;-84
2022/05/10 00:10:21;;;;;;;;;;;18.60;99.90;;;;;;5018328;28;19920;-84
2022/05/10 00:12:47;;;;;;;;;;;18.60;99.90;;;;;;5001805;28;19921;-83
2022/05/10 00:15:12;;;;;;;;;;;18.50;99.90;;;;;;5022833;28;19920;-84
2022/05/10 00:17:39;;;;;;;;;;;18.40;99.90;;;;;;5004681;28;19948;-84
2022/05/10 00:20:06;;;;;;;;;;;18.30;99.90;;;;;;5022972;28;19925;-84
2022/05/10 00:22:32;;;;;;;;;;;18.20;99.90;;;;;;5021027;28;19925;-84
2022/05/10 00:25:00;;;;;;;;;;;18.10;99.90;;;;;;5004004;28;19917;-84
2022/05/10 00:27:25;;;;;;;;;;;18.00;99.90;;;;;;5020137;28;19920;-84
2022/05/10 00:29:51;;;;;;;;;;;18.00;99.90;;;;;;5000015;28;19913;-84
2022/05/10 00:32:16;;;;;;;;;;;17.90;99.90;;;;;;5003389;28;19913;-83
2022/05/10 00:34:43;;;;;;;;;;;17.90;99.90;;;;;;5003309;28;20055;-84
2022/05/10 00:37:09;;;;;;;;;;;17.90;1.00;;;;;;5017593;28;20230;-84
2022/05/10 00:39:35;;;;;;;;;;;17.90;1.00;;;;;;5023346;28;19918;-84
2022/05/10 00:42:07;;;;;;;;;;;17.90;1.00;;;;;;5019896;28;20297;-84
2022/05/10 00:44:38;;;;;;;;;;;17.90;1.00;;;;;;5008875;28;19944;-84
2022/05/10 00:47:24;;;;;;;;;;;18.00;99.90;;;;;;5021345;28;20409;-84
2022/05/10 00:50:00;;;;;;;;;;;18.00;99.90;;;;;;5022638;28;20004;-84
2022/05/10 00:52:58;;;;;;;;;;;18.00;99.90;;;;;;5003574;28;19913;-84
2022/05/10 00:55:33;;;;;;;;;;;18.00;99.90;;;;;;4982246;28;19917;-84
2022/05/10 00:58:25;;;;;;;;;;;17.90;99.90;;;;;;5017153;28;19921;-84
2022/05/10 01:00:52;;;;;;;;;;;17.80;1.00;;;;;;5014403;28;19917;-84
2022/05/10 01:03:18;;;;;;;;;;;17.80;1.00;;;;;;5018456;28;19914;-84
2022/05/10 01:05:46;;;;;;;;;;;17.70;1.00;;;;;;5004012;28;19921;-84
2022/05/10 01:08:16;;;;;;;;;;;17.60;1.00;;;;;;5002570;28;19913;-85
2022/05/10 01:11:00;;;;;;;;;;;17.60;1.00;;;;;;5021325;28;19981;-84
2022/05/10 01:13:42;;;;;;;;;;;17.50;1.00;;;;;;5017716;28;19920;-84
2022/05/10 01:16:11;;;;;;;;;;;17.50;1.00;;;;;;5011671;28;20002;-84
2022/05/10 01:18:38;;;;;;;;;;;17.40;1.00;;;;;;5027140;28;20358;-84
2022/05/10 01:21:23;;;;;;;;;;;17.30;1.00;;;;;;5021651;28;20013;-84
2022/05/10 01:23:55;;;;;;;;;;;17.30;1.00;;;;;;5019981;28;19920;-84
2022/05/10 01:26:42;;;;;;;;;;;17.30;1.00;;;;;;5019893;28;19918;-84
2022/05/10 01:29:09;;;;;;;;;;;17.20;1.00;;;;;;5015639;28;19921;-84
2022/05/10 01:31:39;;;;;;;;;;;17.20;1.00;;;;;;5018258;28;19941;-83
2022/05/10 01:34:11;;;;;;;;;;;17.20;1.00;;;;;;5004109;28;19913;-84
2022/05/10 01:36:39;;;;;;;;;;;17.20;1.00;;;;;;5019247;28;19924;-84
2022/05/10 01:39:23;;;;;;;;;;;17.20;1.00;;;;;;5021366;28;19925;-85
2022/05/10 01:42:07;;;;;;;;;;;17.20;1.00;;;;;;5018523;28;19985;-85
2022/05/10 01:44:51;;;;;;;;;;;17.10;1.00;;;;;;5026240;28;19914;-85
2022/05/10 01:47:21;;;;;;;;;;;17.10;1.00;;;;;;5014767;28;19996;-85
2022/05/10 01:49:53;;;;;;;;;;;17.10;13.50;;;;;;5004311;28;20055;-85
2022/05/10 01:52:27;;;;;;;;;;;17.00;27.70;;;;;;5023484;28;19980;-85
2022/05/10 01:55:12;;;;;;;;;;;16.90;72.30;;;;;;5023368;28;19928;-84
2022/05/10 01:57:40;;;;;;;;;;;16.90;95.20;;;;;;5021903;28;19953;-85
2022/05/10 02:00:13;;;;;;;;;;;16.90;99.90;;;;;;5026134;28;19986;-84
2022/05/10 02:02:40;;;;;;;;;;;16.80;99.90;;;;;;5024580;28;19937;-84
2022/05/10 02:05:08;;;;;;;;;;;16.70;99.90;;;;;;5027203;28;19921;-85
2022/05/10 02:07:34;;;;;;;;;;;16.70;99.90;;;;;;5018206;28;19964;-85
2022/05/10 02:10:06;;;;;;;;;;;16.60;99.90;;;;;;5009210;28;19917;-86
2022/05/10 02:12:31;;;;;;;;;;;16.60;99.90;;;;;;5005883;28;19913;-86
2022/05/10 02:15:16;;;;;;;;;;;16.50;99.90;;;;;;5006765;28;20404;-84
2022/05/10 02:17:44;;;;;;;;;;;16.50;99.90;;;;;;5006181;28;19924;-84
2022/05/10 02:20:18;;;;;;;;;;;16.40;99.90;;;;;;5007916;28;19980;-85
2022/05/10 02:22:47;;;;;;;;;;;16.40;99.90;;;;;;5009133;28;19941;-84
2022/05/10 02:25:14;;;;;;;;;;;16.40;1.00;;;;;;5024464;28;19964;-84
2022/05/10 02:27:42;;;;;;;;;;;16.30;1.00;;;;;;5007548;28;19968;-86
2022/05/10 02:30:12;;;;;;;;;;;16.30;1.00;;;;;;5025880;28;19924;-86
2022/05/10 02:35:25;;;;;;;;;;;16.20;1.00;;;;;;5022374;28;19967;-86
2022/05/10 02:37:50;;;;;;;;;;;16.20;1.00;;;;;;5009051;28;19957;-84
2022/05/10 02:40:16;;;;;;;;;;;16.20;1.00;;;;;;5037628;28;19897;-84
2022/05/10 02:42:44;;;;;;;;;;;16.20;1.00;;;;;;5006802;28;19968;-85
2022/05/10 02:45:12;;;;;;;;;;;16.20;1.00;;;;;;5025354;28;19917;-84
2022/05/10 02:47:42;;;;;;;;;;;16.20;1.00;;;;;;5004423;28;20075;-85
2022/05/10 02:50:13;;;;;;;;;;;16.20;1.00;;;;;;5004449;28;19928;-84
2022/05/10 02:52:39;;;;;;;;;;;16.20;1.00;;;;;;5000281;28;19975;-84
2022/05/10 02:55:18;;;;;;;;;;;16.10;1.00;;;;;;5005014;28;20433;-85
2022/05/10 02:57:45;;;;;;;;;;;16.10;1.00;;;;;;5001709;28;20006;-85
2022/05/10 03:00:11;;;;;;;;;;;16.10;1.00;;;;;;4999374;28;19914;-84
2022/05/10 03:02:43;;;;;;;;;;;16.00;1.00;;;;;;5000557;28;19913;-85
2022/05/10 03:05:09;;;;;;;;;;;16.00;1.00;;;;;;4991668;28;19923;-84
2022/05/10 03:07:35;;;;;;;;;;;15.90;1.00;;;;;;5016125;28;19913;-84
2022/05/10 03:10:00;;;;;;;;;;;15.90;2.20;;;;;;5014922;28;19913;-84
2022/05/10 03:12:26;;;;;;;;;;;15.80;43.20;;;;;;4999832;28;20355;-85
2022/05/10 03:14:53;;;;;;;;;;;15.80;96.40;;;;;;5002593;28;19913;-87
2022/05/10 03:17:19;;;;;;;;;;;15.80;99.90;;;;;;5029272;28;19918;-85
2022/05/10 03:19:44;;;;;;;;;;;15.80;99.90;;;;;;5006310;28;19940;-85
2022/05/10 03:22:10;;;;;;;;;;;15.70;99.90;;;;;;5005465;28;20440;-86
2022/05/10 03:24:36;;;;;;;;;;;15.70;99.90;;;;;;5006152;28;19922;-85
2022/05/10 03:27:03;;;;;;;;;;;15.70;99.90;;;;;;5006939;28;20027;-84
2022/05/10 03:29:29;;;;;;;;;;;15.70;99.90;;;;;;5005657;28;19983;-85
2022/05/10 03:31:55;;;;;;;;;;;15.60;99.90;;;;;;5021985;28;19917;-84
2022/05/10 03:37:07;;;;;;;;;;;15.60;99.90;;;;;;5018995;28;19960;-85
2022/05/10 03:39:32;;;;;;;;;;;15.60;99.90;;;;;;5005701;28;19921;-84
2022/05/10 03:41:58;;;;;;;;;;;15.60;99.90;;;;;;5022148;28;19922;-85
2022/05/10 03:44:23;;;;;;;;;;;15.60;99.90;;;;;;5006816;28;19914;-84
2022/05/10 03:46:49;;;;;;;;;;;15.60;99.90;;;;;;5003666;28;20329;-85
2022/05/10 03:49:15;;;;;;;;;;;15.60;99.90;;;;;;5022159;28;19914;-85
2022/05/10 03:51:40;;;;;;;;;;;15.50;99.90;;;;;;5000839;28;19914;-85
2022/05/10 03:54:06;;;;;;;;;;;15.60;99.90;;;;;;5005878;28;19914;-85
2022/05/10 03:56:33;;;;;;;;;;;15.50;99.90;;;;;;5004627;28;19913;-85
2022/05/10 03:58:59;;;;;;;;;;;15.50;99.90;;;;;;5002985;28;19921;-84
2022/05/10 04:01:25;;;;;;;;;;;15.50;99.90;;;;;;5022938;28;20014;-84
2022/05/10 04:03:50;;;;;;;;;;;15.60;99.90;;;;;;5007248;28;19917;-84
2022/05/10 04:06:16;;;;;;;;;;;15.60;99.90;;;;;;5005662;28;19964;-84
2022/05/10 04:08:42;;;;;;;;;;;15.60;99.90;;;;;;5019205;28;19913;-84
2022/05/10 04:11:08;;;;;;;;;;;15.60;99.90;;;;;;5005675;28;19928;-84
2022/05/10 04:13:34;;;;;;;;;;;15.70;91.30;;;;;;5020936;28;19976;-85
2022/05/10 04:16:00;;;;;;;;;;;15.70;26.80;;;;;;5005038;28;19964;-83
2022/05/10 04:18:26;;;;;;;;;;;15.70;5.90;;;;;;5010587;28;19924;-85
2022/05/10 04:20:51;;;;;;;;;;;15.70;1.00;;;;;;5005518;28;20326;-84
2022/05/10 04:23:17;;;;;;;;;;;15.70;1.00;;;;;;5004349;28;19968;-84
2022/05/10 04:25:42;;;;;;;;;;;15.70;1.00;;;;;;5026134;28;20324;-84
2022/05/10 04:28:08;;;;;;;;;;;15.80;1.00;;;;;;5024576;28;20373;-85
2022/05/10 04:30:33;;;;;;;;;;;15.80;1.00;;;;;;5012367;28;19913;-84
2022/05/10 04:32:59;;;;;;;;;;;15.90;1.00;;;;;;5005304;28;19924;-85
2022/05/10 04:35:24;;;;;;;;;;;15.90;1.00;;;;;;5004273;28;19914;-86
2022/05/10 04:37:50;;;;;;;;;;;16.00;1.00;;;;;;5037275;28;19924;-85
2022/05/10 04:42:59;;;;;;;;;;;16.10;1.00;;;;;;5022120;28;19920;-85
2022/05/10 04:45:27;;;;;;;;;;;16.10;1.00;;;;;;5003891;28;19921;-87
2022/05/10 04:47:53;;;;;;;;;;;16.20;99.90;;;;;;5015563;28;20234;-86
2022/05/10 04:50:19;;;;;;;;;;;16.20;99.90;;;;;;5023473;28;19913;-86
2022/05/10 04:52:44;;;;;;;;;;;16.30;99.90;;;;;;5000516;28;20339;-86
2022/05/10 04:55:10;;;;;;;;;;;16.40;99.90;;;;;;5018201;28;19921;-85
2022/05/10 04:57:36;;;;;;;;;;;16.50;99.90;;;;;;5002392;28;19913;-85
2022/05/10 05:00:03;;;;;;;;;;;16.50;99.90;;;;;;5005450;28;19914;-86
2022/05/10 05:02:28;;;;;;;;;;;16.60;99.90;;;;;;4999927;28;19924;-85
2022/05/10 05:04:54;;;;;;;;;;;16.70;99.90;;;;;;5005555;28;19917;-84
2022/05/10 05:07:19;;;;;;;;;;;16.70;99.90;;;;;;5004437;28;19921;-85
2022/05/10 05:09:45;;;;;;;;;;;16.80;99.90;;;;;;5002900;28;19944;-86
2022/05/10 05:12:11;;;;;;;;;;;16.80;99.90;;;;;;5008831;28;19913;-86
2022/05/10 05:14:37;;;;;;;;;;;16.80;92.20;;;;;;5002296;28;19941;-85
2022/05/10 05:17:03;;;;;;;;;;;16.90;56.00;;;;;;5017246;28;19921;-85
2022/05/10 05:19:28;;;;;;;;;;;17.00;26.20;;;;;;5001684;28;19910;-85
2022/05/10 05:21:53;;;;;;;;;;;17.10;1.00;;;;;;5004185;28;19917;-86
2022/05/10 05:24:19;;;;;;;;;;;17.10;1.00;;;;;;5019082;28;19920;-86
2022/05/10 05:26:46;;;;;;;;;;;17.20;1.00;;;;;;5021735;28;19921;-86
2022/05/10 05:29:12;;;;;;;;;;;17.30;1.00;;;;;;5001687;28;20560;-86
2022/05/10 05:31:37;;;;;;;;;;;17.50;1.00;;;;;;5004356;28;19914;-85
2022/05/10 05:34:03;;;;;;;;;;;17.70;1.00;;;;;;5016874;28;19922;-86
2022/05/10 05:36:28;;;;;;;;;;;18.00;1.00;;;;;;5020342;28;19917;-83
2022/05/10 05:38:54;;;;;;;;;;;18.60;1.00;;;;;;4997677;28;19918;-83
2022/05/10 05:41:19;;;;;;;;;;;19.50;1.00;;;;;;5017212;28;19922;-84
2022/05/10 05:43:45;;;;;;;;;;;20.70;99.90;;;;;;4999244;28;19914;-84
2022/05/10 05:46:11;;;;;;;;;;;22.20;99.90;;;;;;5024099;28;19932;-82
2022/05/10 05:48:37;;;;;;;;;;;23.10;99.90;;;;;;5002025;28;19913;-83
2022/05/10 05:51:03;;;;;;;;;;;23.70;99.90;;;;;;5017087;28;19980;-84
2022/05/10 05:53:28;;;;;;;;;;;24.80;99.90;;;;;;5016981;28;19960;-83
2022/05/10 05:55:59;;;;;;;;;;;25.90;99.90;;;;;;5016327;28;19914;-83
2022/05/10 05:58:24;;;;;;;;;;;27.20;99.90;;;;;;5017198;28;19952;-84
2022/05/10 06:00:50;;;;;;;;;;;28.30;99.90;;;;;;4996084;28;19920;-84
2022/05/10 06:03:15;;;;;;;;;;;28.90;99.90;;;;;;4995770;28;19917;-84
2022/05/10 06:05:41;;;;;;;;;;;30.20;99.90;;;;;;4996732;28;19925;-85
2022/05/10 06:08:08;;;;;;;;;;;31.30;99.90;;;;;;5015786;28;19929;-85
2022/05/10 06:10:34;;;;;;;;;;;32.60;99.90;;;;;;5018542;28;20355;-86
2022/05/10 06:13:01;;;;;;;;;;;33.50;99.90;;;;;;4999527;28;19951;-84
2022/05/10 06:15:27;;;;;;;;;;;33.80;99.90;;;;;;5012673;28;19913;-84
2022/05/10 06:17:52;;;;;;;;;;;34.10;99.90;;;;;;4999300;28;19923;-85
2022/05/10 06:20:20;;;;;;;;;;;34.50;99.90;;;;;;5019092;28;20370;-85
2022/05/10 06:22:46;;;;;;;;;;;34.00;99.90;;;;;;5013037;28;20313;-82
2022/05/10 06:25:13;;;;;;;;;;;34.50;99.90;;;;;;5019991;28;19921;-82
2022/05/10 06:27:39;;;;;;;;;;;35.60;99.90;;;;;;5001821;28;20289;-82
2022/05/10 06:30:04;;;;;;;;;;;37.00;99.90;;;;;;5001481;28;19918;-83
2022/05/10 06:32:31;;;;;;;;;;;38.50;99.90;;;;;;5021517;28;19921;-82
2022/05/10 06:34:58;;;;;;;;;;;40.10;99.90;;;;;;5004727;28;19914;-82
2022/05/10 06:40:11;;;;;;;;;;;41.90;99.90;;;;;;4992065;28;20000;-83
2022/05/10 06:42:37;;;;;;;;;;;43.10;99.90;;;;;;5005852;28;19940;-82
2022/05/10 06:45:03;;;;;;;;;;;43.80;99.90;;;;;;5003597;28;19925;-82
2022/05/10 06:47:29;;;;;;;;;;;44.40;99.90;;;;;;5011339;28;19920;-82
2022/05/10 06:49:54;;;;;;;;;;;45.10;99.90;;;;;;4999611;28;20297;-82
2022/05/10 06:52:20;;;;;;;;;;;45.10;99.90;;;;;;5000321;28;19914;-83
2022/05/10 06:54:46;;;;;;;;;;;44.90;99.90;;;;;;5016623;28;19914;-83
2022/05/10 06:57:11;;;;;;;;;;;44.90;99.90;;;;;;5010529;28;19919;-83
2022/05/10 06:59:37;;;;;;;;;;;44.10;99.90;;;;;;5018647;28;19910;-83
2022/05/10 07:02:03;;;;;;;;;;;42.90;99.90;;;;;;5007907;28;19921;-84
2022/05/10 07:04:28;;;;;;;;;;;41.30;99.90;;;;;;5023206;28;19913;-83
2022/05/10 07:06:53;;;;;;;;;;;39.40;99.90;;;;;;5021564;28;19913;-83
2022/05/10 07:09:19;;;;;;;;;;;37.60;99.90;;;;;;5006435;28;19917;-83
2022/05/10 07:11:46;;;;;;;;;;;36.30;99.90;;;;;;5014371;28;19919;-83
2022/05/10 07:14:12;;;;;;;;;;;35.30;99.90;;;;;;5003087;28;20047;-83
2022/05/10 07:16:38;;;;;;;;;;;34.60;99.90;;;;;;5005015;28;19913;-83
2022/05/10 07:19:03;;;;;;;;;;;34.10;99.90;;;;;;5005467;28;19977;-83
2022/05/10 07:21:29;;;;;;;;;;;33.50;99.90;;;;;;5005558;28;20424;-83
2022/05/10 07:23:55;;;;;;;;;;;33.00;99.90;;;;;;5004835;28;20534;-82
2022/05/10 07:26:20;;;;;;;;;;;33.20;99.90;;;;;;5021512;28;19966;-82
2022/05/10 07:28:46;;;;;;;;;;;33.40;99.90;;;;;;5025530;28;19921;-81
2022/05/10 07:31:12;;;;;;;;;;;34.60;99.90;;;;;;4998170;28;19921;-82
2022/05/10 07:33:37;;;;;;;;;;;36.50;99.90;;;;;;5011011;28;19913;-82
2022/05/10 07:38:47;;;;;;;;;;;40.70;99.90;;;;;;5031314;28;19924;-82
2022/05/10 07:41:12;;;;;;;;;;;43.20;99.90;;;;;;5010669;28;20377;-83
2022/05/10 07:43:38;;;;;;;;;;;43.40;99.90;;;;;;5005110;28;19936;-82
2022/05/10 07:46:05;;;;;;;;;;;43.70;99.90;;;;;;5000488;28;19925;-82
2022/05/10 07:48:30;;;;;;;;;;;45.30;99.90;;;;;;5008123;28;19914;-82
2022/05/10 07:50:56;;;;;;;;;;;47.30;99.90;;;;;;5030812;28;19909;-83
2022/05/10 07:53:22;;;;;;;;;;;48.00;99.90;;;;;;5016054;28;20471;-82
2022/05/10 07:57:37;;;;;;;;;;;45.50;99.90;;;;;;5137957;27;19912;-83
2022/05/10 08:00:02;;;;;;;;;;;44.00;99.90;;;;;;5130111;27;19973;-81
2022/05/10 08:02:28;;;;;;;;;;;44.10;99.90;;;;;;5120364;28;19916;-83
2022/05/10 08:04:54;;;;;;;;;;;44.80;99.90;;;;;;5140645;27;19907;-84
2022/05/10 08:07:20;;;;;;;;;;;46.20;99.90;;;;;;5131057;27;20464;-84
2022/05/10 08:09:48;;;;;;;;;;;47.30;99.90;;;;;;5129190;27;19951;-83
2022/05/10 08:12:13;;;;;;;;;;;47.80;99.90;;;;;;5145257;27;20332;-84
2022/05/10 08:14:39;;;;;;;;;;;48.60;99.90;;;;;;5120289;28;19907;-83
2022/05/10 08:17:04;;;;;;;;;;;48.90;99.90;;;;;;5137487;27;20340;-83
2022/05/10 08:19:30;;;;;;;;;;;49.40;99.90;;;;;;5127608;28;19907;-83
2022/05/10 08:21:58;;;;;;;;;;;48.90;99.90;;;;;;5135697;28;19907;-83
2022/05/10 08:24:24;;;;;;;;;;;47.20;99.90;;;;;;5141653;27;19919;-82
2022/05/10 08:26:49;;;;;;;;;;;47.70;99.90;;;;;;5142670;27;20340;-83
2022/05/10 08:29:15;;;;;;;;;;;46.90;99.90;;;;;;5124680;28;19912;-83
2022/05/10 08:31:41;;;;;;;;;;;46.10;99.90;;;;;;5134465;28;19952;-82
2022/05/10 08:34:06;;;;;;;;;;;43.20;99.90;;;;;;5148651;27;19911;-83
2022/05/10 08:36:32;;;;;;;;;;;40.40;99.90;;;;;;5136673;27;19916;-83
2022/05/10 08:38:57;;;;;;;;;;;38.00;99.90;;;;;;5130017;28;19912;-82
2022/05/10 08:41:29;;;;;;;;;;;36.40;99.90;;;;;;5128147;28;19977;-83
2022/05/10 08:44:12;;;;;;;;;;;35.10;99.90;;;;;;5133480;28;19929;-84
2022/05/10 08:46:38;;;;;;;;;;;34.10;99.90;;;;;;5129041;27;19982;-82
2022/05/10 08:49:12;;;;;;;;;;;33.00;99.90;;;;;;5115864;27;19914;-83
2022/05/10 08:51:38;;;;;;;;;;;32.40;99.90;;;;;;5116645;28;19915;-82
2022/05/10 08:54:04;;;;;;;;;;;31.90;99.90;;;;;;5137321;28;19919;-83
2022/05/10 08:56:37;;;;;;;;;;;31.40;99.90;;;;;;5136501;27;19958;-83
2022/05/10 08:59:02;;;;;;;;;;;31.00;99.90;;;;;;5129958;27;19919;-83
2022/05/10 09:01:32;;;;;;;;;;;30.60;99.90;;;;;;5122326;28;19941;-84
2022/05/10 09:03:57;;;;;;;;;;;30.30;99.90;;;;;;5117568;27;19915;-84
2022/05/10 09:06:27;;;;;;;;;;;30.10;99.90;;;;;;5114631;28;19916;-83
2022/05/10 09:09:08;;;;;;;;;;;30.20;99.90;;;;;;5097623;28;20403;-83
2022/05/10 09:11:41;;;;;;;;;;;30.20;99.90;;;;;;5108535;28;19912;-83
2022/05/10 09:14:07;;;;;;;;;;;30.50;99.90;;;;;;5106428;28;19982;-83
2022/05/10 09:16:32;;;;;;;;;;;31.00;99.90;;;;;;5100302;28;19919;-83
2022/05/10 09:18:58;;;;;;;;;;;31.20;99.90;;;;;;5116311;28;20000;-83
2022/05/10 09:21:24;;;;;;;;;;;31.60;99.90;;;;;;5118649;28;19912;-83
2022/05/10 09:24:03;;;;;;;;;;;31.90;99.90;;;;;;5101124;28;19957;-83
2022/05/10 09:26:39;;;;;;;;;;;32.50;99.90;;;;;;5119612;28;19972;-84
2022/05/10 09:29:17;;;;;;;;;;;33.10;99.90;;;;;;5120227;28;19911;-85
2022/05/10 09:37:24;;;;;;;;;;;35.30;99.90;;;;;;5119358;28;19941;-83
2022/05/10 09:39:59;;;;;;;;;;;36.20;99.90;;;;;;5103844;28;19919;-83
2022/05/10 09:42:26;;;;;;;;;;;36.30;99.90;;;;;;5123592;28;20307;-84
2022/05/10 09:44:58;;;;;;;;;;;36.10;99.90;;;;;;5103822;28;19912;-82
2022/05/10 09:47:24;;;;;;;;;;;35.70;99.90;;;;;;5102551;28;19926;-83
2022/05/10 09:49:49;;;;;;;;;;;35.50;99.90;;;;;;5105292;28;19915;-83
2022/05/10 09:52:17;;;;;;;;;;;35.10;99.90;;;;;;5098800;28;19912;-83
2022/05/10 09:54:43;;;;;;;;;;;35.30;99.90;;;;;;5099130;28;19920;-84
2022/05/10 09:57:10;;;;;;;;;;;35.00;99.90;;;;;;5116908;28;19927;-83
2022/05/10 09:59:42;;;;;;;;;;;34.10;99.90;;;;;;5119892;28;19912;-82
2022/05/10 10:02:08;;;;;;;;;;;33.60;99.90;;;;;;5117789;28;19986;-83
2022/05/10 10:04:37;;;;;;;;;;;33.50;99.90;;;;;;5100024;28;19912;-84
2022/05/10 10:07:04;;;;;;;;;;;33.20;99.90;;;;;;5099950;28;19919;-84
2022/05/10 10:09:31;;;;;;;;;;;32.70;99.90;;;;;;5115143;28;19954;-83
2022/05/10 10:11:57;;;;;;;;;;;32.60;99.90;;;;;;5099180;28;19918;-83
2022/05/10 10:14:33;;;;;;;;;;;33.20;99.90;;;;;;5101868;28;19916;-83
2022/05/10 10:16:59;;;;;;;;;;;33.80;99.90;;;;;;5118984;28;20006;-83
2022/05/10 10:19:28;;;;;;;;;;;33.70;99.90;;;;;;5096569;28;19919;-83
2022/05/10 10:22:01;;;;;;;;;;;33.50;99.90;;;;;;5095974;28;19912;-82
2022/05/10 10:24:38;;;;;;;;;;;32.80;99.90;;;;;;5088300;28;19939;-82
2022/05/10 10:27:08;;;;;;;;;;;32.40;99.90;;;;;;5116054;28;20084;-83
2022/05/10 10:29:47;;;;;;;;;;;32.00;99.90;;;;;;5117760;28;19923;-83
2022/05/10 10:32:16;;;;;;;;;;;31.70;99.90;;;;;;5097735;28;19987;-83
2022/05/10 10:34:52;;;;;;;;;;;31.60;99.90;;;;;;5094191;28;19912;-82
2022/05/10 10:37:39;;;;;;;;;;;31.50;99.90;;;;;;5098489;28;19919;-82
2022/05/10 10:40:05;;;;;;;;;;;31.50;99.90;;;;;;5114437;28;19911;-83
2022/05/10 10:42:33;;;;;;;;;;;32.00;99.90;;;;;;5098145;28;19958;-83
2022/05/10 10:45:01;;;;;;;;;;;32.50;99.90;;;;;;5112175;28;19965;-84
2022/05/10 10:47:48;;;;;;;;;;;32.80;99.90;;;;;;5098691;28;19916;-83
2022/05/10 10:50:30;;;;;;;;;;;33.20;99.90;;;;;;5101219;28;19916;-83
2022/05/10 10:52:58;;;;;;;;;;;34.20;99.90;;;;;;5117642;28;19922;-83
2022/05/10 10:55:34;;;;;;;;;;;35.30;99.90;;;;;;5116019;28;19916;-82
2022/05/10 10:58:10;;;;;;;;;;;35.40;99.90;;;;;;5096579;28;19916;-83
2022/05/10 11:00:39;;;;;;;;;;;35.20;99.90;;;;;;5099713;28;19919;-83
2022/05/10 11:03:08;;;;;;;;;;;35.10;99.90;;;;;;5114493;28;19912;-84
2022/05/10 11:06:08;;;;;;;;;;;34.30;99.90;;;;;;5098679;28;20052;-84
2022/05/10 11:08:34;;;;;;;;;;;33.80;99.90;;;;;;5059994;28;19972;-83
2022/05/10 11:11:03;;;;;;;;;;;33.60;99.90;;;;;;5099097;28;19918;-84
2022/05/10 11:13:54;;;;;;;;;;;33.80;99.90;;;;;;5106570;28;19920;-84
2022/05/10 11:16:43;;;;;;;;;;;34.20;99.90;;;;;;5107108;27;19915;-84
2022/05/10 11:19:29;;;;;;;;;;;34.10;99.90;;;;;;5111123;28;19918;-83
2022/05/10 11:22:15;;;;;;;;;;;33.90;99.90;;;;;;5112448;28;19912;-83
2022/05/10 11:25:03;;;;;;;;;;;34.70;99.90;;;;;;5096142;28;19911;-83
2022/05/10 11:27:39;;;;;;;;;;;35.10;99.90;;;;;;5118872;28;19972;-83
2022/05/10 11:30:07;;;;;;;;;;;34.70;99.90;;;;;;5108207;28;20342;-83
2022/05/10 11:33:00;;;;;;;;;;;35.00;99.90;;;;;;5089045;28;20363;-83
2022/05/10 11:35:38;;;;;;;;;;;36.50;99.90;;;;;;5098486;28;19915;-83
2022/05/10 11:38:11;;;;;;;;;;;36.30;99.90;;;;;;5083709;28;19961;-83
2022/05/10 11:40:44;;;;;;;;;;;35.90;99.90;;;;;;5100157;28;19908;-83
2022/05/10 11:43:28;;;;;;;;;;;36.00;99.90;;;;;;5117777;28;19908;-83
2022/05/10 11:46:29;;;;;;;;;;;36.10;99.90;;;;;;5099188;28;19908;-83
2022/05/10 11:49:08;;;;;;;;;;;36.20;99.90;;;;;;5081200;27;19935;-83
2022/05/10 11:51:47;;;;;;;;;;;36.40;99.90;;;;;;5103860;28;20049;-83
2022/05/10 11:54:16;;;;;;;;;;;37.10;99.90;;;;;;5115324;28;20331;-84
2022/05/10 11:56:43;;;;;;;;;;;36.90;99.90;;;;;;5108714;28;20440;-83
2022/05/10 11:59:20;;;;;;;;;;;36.00;99.90;;;;;;5129114;28;19922;-83
2022/05/10 12:01:47;;;;;;;;;;;35.00;99.90;;;;;;5118302;28;19912;-83
2022/05/10 12:04:34;;;;;;;;;;;34.20;99.90;;;;;;5106946;28;19983;-83
2022/05/10 12:07:20;;;;;;;;;;;33.20;99.90;;;;;;5133016;27;20371;-83
2022/05/10 12:09:51;;;;;;;;;;;33.60;99.90;;;;;;5122174;28;20382;-83
2022/05/10 12:12:32;;;;;;;;;;;34.10;99.90;;;;;;5137620;28;20341;-83
2022/05/10 12:23:19;;;;;;;;;;;34.00;99.90;;;;;;5117060;28;19919;-83
2022/05/10 12:25:53;;;;;;;;;;;34.20;99.90;;;;;;5105034;28;19912;-83
2022/05/10 12:28:40;;;;;;;;;;;34.10;99.90;;;;;;5114560;28;19915;-85
2022/05/10 12:31:24;;;;;;;;;;;34.60;99.90;;;;;;5116436;28;19919;-83
2022/05/10 12:34:06;;;;;;;;;;;34.60;99.90;;;;;;5134148;28;19907;-83
2022/05/10 12:36:50;;;;;;;;;;;33.70;99.90;;;;;;5132971;28;19922;-84
2022/05/10 12:39:15;;;;;;;;;;;33.40;99.90;;;;;;5112452;28;19914;-82
2022/05/10 12:41:41;;;;;;;;;;;33.50;99.90;;;;;;5118226;28;19998;-83
2022/05/10 12:44:26;;;;;;;;;;;32.90;99.90;;;;;;5135029;27;19969;-83
2022/05/10 12:47:18;;;;;;;;;;;32.90;99.90;;;;;;5126705;28;19934;-84
2022/05/10 12:49:53;;;;;;;;;;;32.60;99.90;;;;;;5092873;27;19908;-84
2022/05/10 12:52:24;;;;;;;;;;;32.10;99.90;;;;;;5122417;28;19911;-83
2022/05/10 12:54:53;;;;;;;;;;;31.80;99.90;;;;;;5128603;28;19908;-85
2022/05/10 13:00:11;;;;;;;;;;;31.80;99.90;;;;;;5115321;27;19919;-83
2022/05/10 13:02:40;;;;;;;;;;;32.00;99.90;;;;;;5120229;27;19915;-83
2022/05/10 13:05:09;;;;;;;;;;;32.30;99.90;;;;;;5133102;27;19970;-82
2022/05/10 13:07:54;;;;;;;;;;;32.60;99.90;;;;;;5127429;27;19947;-84
2022/05/10 13:10:23;;;;;;;;;;;32.90;99.90;;;;;;5121210;28;19919;-84
2022/05/10 13:12:53;;;;;;;;;;;32.80;99.90;;;;;;5144079;27;19908;-83
2022/05/10 13:15:23;;;;;;;;;;;32.90;99.90;;;;;;5120472;28;19911;-84
2022/05/10 13:17:51;;;;;;;;;;;32.90;99.90;;;;;;5123648;28;19937;-83
2022/05/10 13:20:19;;;;;;;;;;;33.00;99.90;;;;;;5121585;28;19931;-83
2022/05/10 13:22:59;;;;;;;;;;;32.90;99.90;;;;;;5106964;28;20006;-83
2022/05/10 13:25:26;;;;;;;;;;;32.90;99.90;;;;;;5128428;27;19934;-83
2022/05/10 13:27:52;;;;;;;;;;;33.00;99.90;;;;;;5129050;27;19912;-83
2022/05/10 13:30:20;;;;;;;;;;;32.90;99.90;;;;;;5105365;28;19916;-84
2022/05/10 13:32:51;;;;;;;;;;;32.80;99.90;;;;;;5109384;28;19912;-83
2022/05/10 13:35:27;;;;;;;;;;;32.10;99.90;;;;;;5102559;28;19993;-82
2022/05/10 13:38:00;;;;;;;;;;;31.80;99.90;;;;;;5101317;28;19912;-82
2022/05/10 13:40:31;;;;;;;;;;;31.70;99.90;;;;;;5138714;27;19907;-83
2022/05/10 13:43:05;;;;;;;;;;;31.70;99.90;;;;;;5113113;28;20341;-83
2022/05/10 13:45:31;;;;;;;;;;;31.50;99.90;;;;;;5121850;28;20363;-83
2022/05/10 13:48:04;;;;;;;;;;;31.30;99.90;;;;;;5121333;27;19929;-83
2022/05/10 13:50:30;;;;;;;;;;;31.20;99.90;;;;;;5128600;27;19912;-83
2022/05/10 13:53:01;;;;;;;;;;;30.90;99.90;;;;;;5113709;28;19915;-83
2022/05/10 13:55:30;;;;;;;;;;;30.70;99.90;;;;;;5105318;28;19982;-82
2022/05/10 13:57:59;;;;;;;;;;;30.60;99.90;;;;;;5117708;28;19915;-83
2022/05/10 14:00:39;;;;;;;;;;;30.60;99.90;;;;;;5117069;28;19955;-84
2022/05/10 14:03:06;;;;;;;;;;;30.60;99.90;;;;;;5120920;28;19930;-83
2022/05/10 14:05:33;;;;;;;;;;;30.70;99.90;;;;;;5121420;28;19918;-83
2022/05/10 14:08:19;;;;;;;;;;;30.70;99.90;;;;;;5112274;28;19908;-82
2022/05/10 14:10:56;;;;;;;;;;;30.60;99.90;;;;;;5120960;27;19919;-83
2022/05/10 14:13:22;;;;;;;;;;;30.90;99.90;;;;;;5110897;28;19919;-83
2022/05/10 14:15:48;;;;;;;;;;;31.20;99.90;;;;;;5129895;27;20520;-83
2022/05/10 14:18:16;;;;;;;;;;;31.50;99.90;;;;;;5123834;27;19914;-83
2022/05/10 14:20:45;;;;;;;;;;;31.50;99.90;;;;;;5119132;28;20010;-83
2022/05/10 14:23:14;;;;;;;;;;;31.70;99.90;;;;;;5090679;28;19919;-83
2022/05/10 14:25:48;;;;;;;;;;;31.60;99.90;;;;;;5110839;28;19998;-83
2022/05/10 14:28:30;;;;;;;;;;;31.50;99.90;;;;;;5120613;28;19912;-84
2022/05/10 14:30:55;;;;;;;;;;;31.50;99.90;;;;;;5114061;28;20278;-83
2022/05/10 14:33:24;;;;;;;;;;;31.40;99.90;;;;;;5121450;28;19912;-83
2022/05/10 14:35:51;;;;;;;;;;;31.00;99.90;;;;;;5129490;27;20544;-82
2022/05/10 14:38:20;;;;;;;;;;;30.60;99.90;;;;;;5125933;27;20272;-83
2022/05/10 14:40:46;;;;;;;;;;;30.10;99.90;;;;;;5112192;28;19915;-83
2022/05/10 14:43:13;;;;;;;;;;;30.00;99.90;;;;;;5120322;28;19912;-84
2022/05/10 14:45:39;;;;;;;;;;;29.90;99.90;;;;;;5112426;28;19930;-83
2022/05/10 14:48:23;;;;;;;;;;;29.80;99.90;;;;;;5102760;28;19912;-83
2022/05/10 14:50:54;;;;;;;;;;;29.80;99.90;;;;;;5111831;28;19915;-83
2022/05/10 14:53:21;;;;;;;;;;;29.70;99.90;;;;;;5111972;28;19975;-82
2022/05/10 14:55:48;;;;;;;;;;;29.80;99.90;;;;;;5102634;28;19923;-83
2022/05/10 14:58:22;;;;;;;;;;;29.90;99.90;;;;;;5110794;28;19947;-83
2022/05/10 15:01:07;;;;;;;;;;;29.90;99.90;;;;;;5132199;27;19919;-82
2022/05/10 15:03:34;;;;;;;;;;;30.00;99.90;;;;;;5128502;27;20253;-83
2022/05/10 15:06:05;;;;;;;;;;;30.10;99.90;;;;;;5110031;28;19923;-83